Spring Valley Estates, Indiana
Current Conditions -  °F | °C
As of 3:53 PM on Monday 24 Nov 2014 (Local Time) from KHUF Reporting Station
Overcast Overcast  
Wind Chill: 29°   Ceiling: 3300
Heat Index: 38°   Visibility: 10mi
Dew Point: 30°   Wind: 16mph
Humidity: 73%   Direction: 240°WSW
Pressure: 29.72"   Gusts: 23mph
Location:  39.3587°N, 87.4056°W
Report Text: KHUF 242053Z 24014G20KT 10SM OVC033 03/M01 A2972 RMK AO2 PK WND 25026/2015 RAB1956E05SNE1954 SLP066 P0000 60000 T00331011 51038
Loading
Personal Weather Stations






























Interactive Weather Map New forecast layout! Learn more

10-Day Weather Forecast

Advertisements
Track Severe Weather on mobile